KJHW

Chautauqua County / Jamestown Airport

Jamestown, New York, USA
METAR KJHW 240056Z AUTO 31004KT 10SM CLR 17/10 A3017 RMK AO2 SLP221 T01670100
Observed Flight Rules
May-24 @ 00:56 UTC (51 minutes ago) Visual Flight Rules
Wind Visibility Clouds
310° at 4 knots 10 miles
  • Clear skies
Temperatures Readings
Current 17°C / 63°F
Dewpoint 10°C / 50°F
Humidity 64%
Altimeter 30.17" Hg
Pressure 1022.1 hPa
Elevation 525
METAR KJHW 240056Z AUTO 31004KT 10SM CLR 17/10 A3017 RMK AO2 SLP221 T01670100
Observed Flight Rules
May-24 @ 00:56 UTC
(51 minutes ago)
VFR
Wind Visibility
310° at 4 knots 10 miles
Clouds
  • Clear skies
Temperature Dewpoint
17°C / 63°F 10°C / 50°F
Humidity Altimeter Pressure
64% 30.17" Hg 1022.1 hPa